Time;durP1;ratioP1;P1;durP2;ratioP2;P2;SDS_P1;SDS_P2;PMS_P1;PMS_P2;Temp;Humidity;BMP_temperature;BMP_pressure;BME280_temperature;BME280_humidity;BME280_pressure;Samples;Min_cycle;Max_cycle;Signal;HPM_P1;HPM_P2
2022/09/05 00:02:03;;;;;;;2.22;1.20;;;16.80;96.90;;;;;;4992119;28;20027;-52
2022/09/05 00:04:56;;;;;;;2.33;1.58;;;16.70;97.00;;;;;;4985750;28;20438;-47
2022/09/05 00:07:37;;;;;;;2.28;1.63;;;16.70;97.10;;;;;;4986721;28;20018;-49
2022/09/05 00:10:39;;;;;;;1.48;1.30;;;16.70;97.20;;;;;;4993451;28;20030;-47
2022/09/05 00:13:14;;;;;;;5.50;2.00;;;16.60;97.20;;;;;;4988160;28;20049;-47
2022/09/05 00:16:08;;;;;;;1.40;1.30;;;16.60;97.40;;;;;;4992170;28;20021;-48
2022/09/05 00:18:51;;;;;;;2.90;1.50;;;16.60;97.40;;;;;;5010935;23;20503;-53
2022/09/05 00:21:36;;;;;;;1.63;1.30;;;16.50;97.50;;;;;;4971296;28;20042;-55
2022/09/05 00:24:12;;;;;;;3.42;1.60;;;16.50;97.60;;;;;;4965856;28;20097;-54
2022/09/05 00:26:51;;;;;;;1.40;1.30;;;16.40;97.60;;;;;;4968361;28;20031;-56
2022/09/05 00:29:44;;;;;;;1.58;1.48;;;16.40;97.70;;;;;;4953915;28;20035;-55
2022/09/05 00:32:29;;;;;;;2.95;1.70;;;16.40;97.80;;;;;;4947078;28;20035;-57
2022/09/05 00:35:43;;;;;;;1.77;1.50;;;16.30;97.90;;;;;;4955151;28;20053;-56
2022/09/05 00:38:13;;;;;;;2.33;1.23;;;16.30;98.00;;;;;;4912795;28;20119;-54
2022/09/05 00:40:44;;;;;;;2.95;1.42;;;16.30;98.00;;;;;;4951977;28;20037;-55
2022/09/05 00:43:19;;;;;;;1.83;1.48;;;16.20;98.00;;;;;;4958692;28;20114;-53
2022/09/05 00:45:57;;;;;;;1.40;1.20;;;16.20;98.20;;;;;;4959869;28;20019;-55
2022/09/05 00:48:35;;;;;;;1.60;1.50;;;16.10;98.20;;;;;;4958883;28;20030;-57
2022/09/05 00:51:20;;;;;;;3.05;1.90;;;16.10;98.30;;;;;;4960838;28;20043;-57
2022/09/05 00:54:00;;;;;;;3.13;1.52;;;16.10;98.30;;;;;;4961034;28;20019;-54
2022/09/05 00:56:57;;;;;;;2.42;1.55;;;16.10;98.40;;;;;;4947240;28;20491;-55
2022/09/05 00:59:23;;;;;;;1.80;1.40;;;16.00;98.50;;;;;;4952833;28;20128;-56
2022/09/05 01:01:57;;;;;;;2.05;1.92;;;16.00;98.70;;;;;;4951040;28;20499;-58
2022/09/05 01:04:26;;;;;;;2.65;1.80;;;15.90;98.70;;;;;;4950874;28;20027;-57
2022/09/05 01:07:05;;;;;;;2.47;1.40;;;15.90;98.80;;;;;;4952207;28;20031;-58
2022/09/05 01:09:49;;;;;;;1.55;1.40;;;15.90;98.70;;;;;;4947139;28;20103;-56
2022/09/05 01:12:32;;;;;;;1.90;1.67;;;15.90;98.90;;;;;;4944128;28;20566;-53
2022/09/05 01:15:13;;;;;;;2.08;1.60;;;15.90;98.90;;;;;;4945172;28;20035;-57
2022/09/05 01:17:44;;;;;;;1.52;1.42;;;15.80;99.00;;;;;;4945314;28;20433;-54
2022/09/05 01:20:42;;;;;;;2.08;1.50;;;15.80;99.10;;;;;;4937840;28;20106;-56
2022/09/05 01:23:32;;;;;;;3.28;1.55;;;15.80;99.10;;;;;;4948789;28;20143;-57
2022/09/05 01:26:10;;;;;;;2.65;1.48;;;15.80;99.30;;;;;;4951235;28;20054;-56
2022/09/05 01:28:35;;;;;;;2.78;1.52;;;15.80;99.50;;;;;;4941629;28;20476;-58
2022/09/05 01:31:25;;;;;;;2.90;1.73;;;15.70;99.40;;;;;;4942483;28;20042;-53
2022/09/05 01:34:01;;;;;;;2.50;1.63;;;15.70;99.30;;;;;;4941982;28;20039;-56
2022/09/05 01:36:56;;;;;;;2.15;1.60;;;15.70;99.40;;;;;;4940036;28;20027;-57
2022/09/05 01:39:40;;;;;;;3.53;1.40;;;15.60;99.60;;;;;;4944720;28;20128;-55
2022/09/05 01:42:25;;;;;;;1.73;1.63;;;15.60;99.60;;;;;;4951559;28;20027;-56
2022/09/05 01:44:59;;;;;;;2.35;2.15;;;15.60;99.60;;;;;;4944481;28;20114;-57
2022/09/05 01:47:28;;;;;;;2.70;1.80;;;15.60;99.70;;;;;;4941235;28;20019;-56
2022/09/05 01:50:02;;;;;;;1.80;1.70;;;15.60;99.70;;;;;;4941692;28;20443;-56
2022/09/05 01:52:58;;;;;;;2.33;1.70;;;15.60;99.70;;;;;;4940868;28;20430;-56
2022/09/05 01:55:48;;;;;;;2.08;1.70;;;15.60;99.70;;;;;;4941677;28;20151;-57
2022/09/05 01:58:26;;;;;;;1.90;1.80;;;15.60;99.70;;;;;;4941387;28;20059;-57
2022/09/05 02:01:21;;;;;;;2.45;1.88;;;15.60;99.70;;;;;;4945324;28;20032;-57
2022/09/05 02:04:09;;;;;;;3.85;1.77;;;15.60;99.70;;;;;;4947030;28;20019;-54
2022/09/05 02:06:47;;;;;;;3.00;1.83;;;15.60;99.80;;;;;;4931381;28;20447;-58
2022/09/05 02:09:33;;;;;;;2.17;1.80;;;15.50;99.80;;;;;;4941061;28;20104;-57
2022/09/05 02:12:06;;;;;;;;;;;15.50;99.80;;;;;;4944489;28;20515;-54
2022/09/05 02:14:53;;;;;;;3.25;1.90;;;15.50;99.90;;;;;;4941827;28;19963;-57
2022/09/05 02:17:55;;;;;;;1.63;1.50;;;15.50;99.90;;;;;;4938963;28;20523;-55
2022/09/05 02:20:45;;;;;;;3.75;1.92;;;15.50;99.90;;;;;;4939343;28;20039;-57
2022/09/05 02:23:16;;;;;;;1.75;1.60;;;15.50;99.90;;;;;;4940302;28;20510;-54
2022/09/05 02:25:48;;;;;;;2.28;1.80;;;15.50;99.90;;;;;;4941762;28;20039;-58
2022/09/05 02:28:44;;;;;;;2.30;2.10;;;15.50;99.90;;;;;;4940889;28;20034;-57
2022/09/05 02:31:39;;;;;;;4.53;2.10;;;15.50;99.90;;;;;;4941328;28;20096;-58
2022/09/05 02:34:20;;;;;;;2.08;1.90;;;15.50;99.90;;;;;;4941027;28;20024;-55
2022/09/05 02:37:00;;;;;;;2.30;2.00;;;15.40;99.90;;;;;;4940818;28;20023;-56
2022/09/05 02:39:50;;;;;;;1.77;1.67;;;15.40;99.90;;;;;;4942615;28;20015;-58
2022/09/05 02:42:44;;;;;;;3.78;2.15;;;15.40;99.90;;;;;;4937906;28;20023;-58
2022/09/05 02:45:36;;;;;;;3.58;2.20;;;15.40;99.90;;;;;;4947073;28;20027;-58
2022/09/05 02:48:21;;;;;;;3.10;2.47;;;15.40;99.90;;;;;;4941222;28;20400;-56
2022/09/05 02:51:03;;;;;;;3.85;2.00;;;15.40;99.90;;;;;;4940562;28;20147;-54
2022/09/05 02:53:31;;;;;;;2.83;1.95;;;15.40;99.90;;;;;;4934931;28;20514;-56
2022/09/05 02:56:18;;;;;;;2.78;2.33;;;15.40;99.90;;;;;;4941255;28;20027;-58
2022/09/05 02:58:58;;;;;;;2.58;2.20;;;15.40;99.90;;;;;;4938023;28;20098;-57
2022/09/05 03:01:29;;;;;;;3.03;2.28;;;15.30;99.90;;;;;;4947177;28;20027;-57
2022/09/05 03:04:24;;;;;;;2.92;1.98;;;15.30;99.90;;;;;;4936600;28;20031;-57
2022/09/05 03:07:19;;;;;;;2.53;1.98;;;15.30;99.90;;;;;;4945321;28;20120;-53
2022/09/05 03:09:59;;;;;;;3.47;2.00;;;15.30;99.90;;;;;;4938629;28;20031;-58
2022/09/05 03:12:55;;;;;;;3.75;2.25;;;15.30;99.90;;;;;;4944729;28;20106;-53
2022/09/05 03:15:33;;;;;;;1.98;1.83;;;15.30;99.90;;;;;;4939346;28;20067;-56
2022/09/05 03:18:17;;;;;;;4.80;2.65;;;15.30;99.90;;;;;;4935506;28;20101;-54
2022/09/05 03:21:07;;;;;;;2.53;2.33;;;15.30;99.90;;;;;;4943084;28;20027;-57
2022/09/05 03:23:51;;;;;;;2.65;2.17;;;15.30;99.90;;;;;;4940912;28;20027;-56
2022/09/05 03:26:45;;;;;;;2.67;2.47;;;15.30;99.90;;;;;;4938749;28;20019;-53
2022/09/05 03:29:34;;;;;;;3.05;2.50;;;15.30;99.90;;;;;;4940780;28;20391;-56
2022/09/05 03:32:23;;;;;;;2.42;2.22;;;15.30;99.90;;;;;;4941105;28;20024;-54
2022/09/05 03:35:01;;;;;;;3.00;2.28;;;15.30;99.90;;;;;;4943627;28;20027;-57
2022/09/05 03:38:00;;;;;;;2.90;2.35;;;15.20;99.90;;;;;;4946807;28;20038;-55
2022/09/05 03:40:59;;;;;;;3.03;2.42;;;15.20;99.90;;;;;;4943948;28;20034;-54
2022/09/05 03:43:36;;;;;;;2.90;2.10;;;15.20;99.90;;;;;;4943655;28;20480;-56
2022/09/05 03:46:07;;;;;;;3.10;2.72;;;15.20;99.90;;;;;;4944452;28;20142;-53
2022/09/05 03:48:51;;;;;;;3.60;2.10;;;15.20;99.90;;;;;;4943547;28;20020;-53
2022/09/05 03:51:30;;;;;;;2.33;2.13;;;15.20;99.90;;;;;;4940550;28;20026;-57
2022/09/05 03:54:17;;;;;;;3.08;2.67;;;15.10;99.90;;;;;;4944719;28;20362;-53
2022/09/05 03:57:04;;;;;;;3.40;2.33;;;15.10;99.90;;;;;;4949951;28;20129;-55
2022/09/05 03:59:42;;;;;;;3.55;2.55;;;15.20;99.90;;;;;;4942340;28;20027;-57
2022/09/05 04:02:13;;;;;;;2.80;2.30;;;15.10;99.90;;;;;;4943829;28;20085;-56
2022/09/05 04:04:41;;;;;;;2.53;2.33;;;15.10;99.90;;;;;;4942664;28;20039;-58
2022/09/05 04:07:24;;;;;;;3.35;2.47;;;15.10;99.90;;;;;;4943689;28;20058;-56
2022/09/05 04:10:02;;;;;;;3.08;2.38;;;15.10;99.90;;;;;;4943132;28;21283;-56
2022/09/05 04:12:51;;;;;;;2.95;2.70;;;15.10;99.90;;;;;;4947949;28;20031;-57
2022/09/05 04:15:35;;;;;;;4.00;2.30;;;15.10;99.90;;;;;;4941818;28;20411;-54
2022/09/05 04:18:23;;;;;;;2.55;2.35;;;15.10;99.90;;;;;;4938589;28;20423;-57
2022/09/05 04:20:54;;;;;;;3.80;2.78;;;15.10;99.90;;;;;;4945955;28;20086;-56
2022/09/05 04:23:49;;;;;;;3.45;2.28;;;15.10;99.90;;;;;;4947647;28;20031;-56
2022/09/05 04:26:29;;;;;;;2.90;2.60;;;15.10;99.90;;;;;;4941761;28;20028;-56
2022/09/05 04:29:21;;;;;;;2.85;2.63;;;15.10;99.90;;;;;;4942267;28;20023;-57
2022/09/05 04:32:05;;;;;;;3.20;2.88;;;15.10;99.90;;;;;;4942595;28;20030;-54
2022/09/05 04:34:33;;;;;;;4.82;2.70;;;15.10;99.90;;;;;;4940705;28;20051;-57
2022/09/05 04:37:04;;;;;;;3.10;2.40;;;15.10;99.90;;;;;;4942788;28;20042;-57
2022/09/05 04:39:32;;;;;;;3.13;2.60;;;15.10;99.90;;;;;;4944749;28;20197;-54
2022/09/05 04:42:03;;;;;;;4.30;2.50;;;15.10;99.90;;;;;;4939138;28;20485;-55
2022/09/05 04:44:48;;;;;;;3.80;2.90;;;15.10;99.90;;;;;;4944953;28;20070;-53
2022/09/05 04:47:16;;;;;;;2.92;2.72;;;15.10;99.90;;;;;;4938630;28;20543;-54
2022/09/05 04:49:49;;;;;;;2.92;2.67;;;15.10;99.90;;;;;;4945656;28;20019;-56
2022/09/05 04:52:52;;;;;;;3.58;3.28;;;15.10;99.90;;;;;;4937964;28;20113;-57
2022/09/05 04:55:42;;;;;;;5.18;3.00;;;15.10;99.90;;;;;;4942627;28;20051;-53
2022/09/05 04:58:34;;;;;;;3.08;2.30;;;15.10;99.90;;;;;;4943914;28;20117;-57
2022/09/05 05:01:19;;;;;;;4.05;3.35;;;15.10;99.90;;;;;;4943647;28;20028;-57
2022/09/05 05:03:46;;;;;;;3.10;2.80;;;15.20;99.90;;;;;;4942384;28;20027;-55
2022/09/05 05:06:33;;;;;;;5.38;2.88;;;15.20;99.90;;;;;;4943403;28;20034;-57
2022/09/05 05:09:20;;;;;;;3.40;3.05;;;15.20;99.90;;;;;;4937918;28;20035;-56
2022/09/05 05:12:00;;;;;;;5.10;3.05;;;15.20;99.90;;;;;;4945116;28;20503;-57
2022/09/05 05:14:45;;;;;;;3.45;2.90;;;15.20;99.90;;;;;;4942122;28;20026;-55
2022/09/05 05:17:44;;;;;;;3.35;2.85;;;15.20;99.90;;;;;;4941906;28;20396;-55
2022/09/05 05:20:23;;;;;;;3.55;2.72;;;15.20;99.90;;;;;;4949945;28;20063;-57
2022/09/05 05:23:11;;;;;;;3.85;3.40;;;15.20;99.90;;;;;;4948800;28;20425;-57
2022/09/05 05:25:42;;;;;;;5.20;2.90;;;15.30;99.90;;;;;;4942306;28;20443;-57
2022/09/05 05:28:19;;;;;;;3.33;2.83;;;15.30;99.90;;;;;;4942654;28;20035;-57
2022/09/05 05:30:45;;;;;;;3.35;3.05;;;15.30;99.90;;;;;;4942542;28;20024;-57
2022/09/05 05:33:30;;;;;;;3.88;2.58;;;15.30;99.90;;;;;;4943067;28;20023;-57
2022/09/05 05:35:59;;;;;;;3.40;2.55;;;15.30;99.90;;;;;;4940264;28;20046;-56
2022/09/05 05:38:27;;;;;;;4.53;2.50;;;15.30;99.90;;;;;;4941539;28;20032;-56
2022/09/05 05:41:01;;;;;;;3.13;2.60;;;15.40;99.90;;;;;;4943209;28;20035;-57
2022/09/05 05:43:35;;;;;;;4.43;3.30;;;15.40;99.90;;;;;;4941314;28;20034;-55
2022/09/05 05:46:01;;;;;;;4.35;3.33;;;15.40;99.90;;;;;;4942407;28;20059;-55
2022/09/05 05:48:29;;;;;;;3.30;2.58;;;15.50;99.90;;;;;;4941282;28;20055;-55
2022/09/05 05:51:17;;;;;;;5.25;3.08;;;15.50;99.90;;;;;;4941333;28;20024;-55
2022/09/05 05:54:04;;;;;;;3.28;3.00;;;15.50;99.90;;;;;;4941733;28;20106;-55
2022/09/05 05:57:15;;;;;;;3.70;2.83;;;15.60;99.90;;;;;;4942790;28;20652;-55
2022/09/05 05:59:59;;;;;;;4.75;3.10;;;15.60;99.90;;;;;;4910007;29;20040;-57
2022/09/05 06:02:52;;;;;;;4.32;2.90;;;15.70;99.90;;;;;;4941341;28;20055;-56
2022/09/05 06:05:30;;;;;;;4.30;2.60;;;15.80;99.90;;;;;;4936524;28;20024;-56
2022/09/05 06:08:22;;;;;;;6.93;2.97;;;15.80;99.90;;;;;;4941061;28;20035;-54
2022/09/05 06:11:17;;;;;;;4.32;3.00;;;15.90;99.90;;;;;;4941171;28;20020;-56
2022/09/05 06:14:05;;;;;;;4.10;2.63;;;16.00;99.90;;;;;;4944675;28;20026;-56
2022/09/05 06:16:43;;;;;;;3.65;3.22;;;16.10;99.90;;;;;;4941074;28;20031;-58
2022/09/05 06:19:27;;;;;;;3.55;3.00;;;16.20;99.60;;;;;;4969350;23;20776;-47
2022/09/05 06:22:20;;;;;;;3.08;2.78;;;16.30;99.50;;;;;;4969488;28;20451;-48
2022/09/05 06:24:56;;;;;;;3.38;2.58;;;16.40;99.50;;;;;;4966271;28;20019;-47
2022/09/05 06:28:01;;;;;;;4.60;2.95;;;16.40;99.40;;;;;;4966857;28;20019;-46
2022/09/05 06:30:52;;;;;;;5.18;2.95;;;16.50;99.20;;;;;;4948509;28;20023;-49
2022/09/05 06:33:33;;;;;;;3.80;3.42;;;16.60;99.10;;;;;;4949732;28;20027;-52
2022/09/05 06:36:34;;;;;;;2.65;2.45;;;16.60;98.90;;;;;;4949056;28;20428;-47
2022/09/05 06:39:12;;;;;;;5.53;3.40;;;16.70;99.10;;;;;;4932325;28;20043;-47
2022/09/05 06:42:09;;;;;;;4.72;2.80;;;16.70;98.90;;;;;;4956323;28;20448;-47
2022/09/05 06:45:22;;;;;;;4.65;2.90;;;16.80;98.90;;;;;;4956303;28;20026;-47
2022/09/05 06:47:55;;;;;;;3.17;2.88;;;16.90;98.70;;;;;;4943379;28;20499;-47
2022/09/05 06:50:25;;;;;;;3.08;2.75;;;16.90;98.70;;;;;;4950039;28;20031;-47
2022/09/05 06:53:23;;;;;;;3.95;2.42;;;17.00;98.50;;;;;;4948601;28;20395;-49
2022/09/05 06:56:11;;;;;;;12.32;3.55;;;17.10;98.30;;;;;;4944052;28;20038;-48
2022/09/05 06:58:52;;;;;;;4.85;2.92;;;17.20;98.30;;;;;;4948348;28;20106;-47
2022/09/05 07:01:26;;;;;;;3.85;2.95;;;17.30;98.50;;;;;;4952452;28;20028;-49
2022/09/05 07:04:09;;;;;;;3.80;2.78;;;17.40;98.10;;;;;;4954574;28;20023;-51
2022/09/05 07:06:57;;;;;;;3.35;2.83;;;17.40;98.00;;;;;;4953200;28;20046;-47
2022/09/05 07:09:23;;;;;;;5.20;2.88;;;17.50;97.90;;;;;;4938322;28;20023;-47
2022/09/05 07:11:55;;;;;;;2.90;2.60;;;17.70;97.80;;;;;;4952834;28;20077;-49
2022/09/05 07:14:26;;;;;;;4.28;2.95;;;17.80;97.80;;;;;;4946329;28;20024;-49
2022/09/05 07:17:18;;;;;;;3.97;2.65;;;17.90;97.80;;;;;;4954868;28;20027;-47
2022/09/05 07:19:59;;;;;;;3.47;2.78;;;18.00;97.80;;;;;;4948181;28;20113;-47
2022/09/05 07:22:37;;;;;;;5.95;2.88;;;18.10;97.40;;;;;;4957810;28;20037;-47
2022/09/05 07:25:14;;;;;;;3.33;2.85;;;18.10;97.70;;;;;;4950215;28;20034;-48
2022/09/05 07:28:03;;;;;;;3.33;3.03;;;18.20;97.30;;;;;;4958537;28;20031;-50
2022/09/05 07:30:31;;;;;;;4.25;2.67;;;18.20;97.20;;;;;;4937451;28;20031;-50
2022/09/05 07:32:59;;;;;;;3.92;3.10;;;18.20;97.40;;;;;;4956346;28;20023;-51
2022/09/05 07:35:30;;;;;;;3.25;2.75;;;18.20;97.40;;;;;;4945085;28;20020;-46
2022/09/05 07:38:21;;;;;;;2.78;2.58;;;18.30;97.20;;;;;;4950719;28;20030;-49
2022/09/05 07:41:00;;;;;;;4.45;3.00;;;18.30;97.30;;;;;;4957871;28;20055;-47
2022/09/05 07:43:32;;;;;;;3.80;3.38;;;18.40;96.90;;;;;;4948409;28;20101;-50
2022/09/05 07:46:14;;;;;;;3.40;2.95;;;18.50;96.90;;;;;;4957365;28;20023;-52
2022/09/05 07:48:45;;;;;;;3.85;2.45;;;18.60;97.20;;;;;;4948537;28;20046;-48
2022/09/05 07:51:18;;;;;;;4.25;2.67;;;18.70;96.80;;;;;;4954127;28;20055;-54
2022/09/05 07:53:46;;;;;;;6.30;2.92;;;18.90;96.60;;;;;;4947908;28;20364;-49
2022/09/05 07:56:13;;;;;;;3.00;2.80;;;19.10;96.20;;;;;;4953946;28;20031;-50
2022/09/05 07:58:44;;;;;;;4.57;3.08;;;19.30;96.00;;;;;;4957077;28;20045;-47
2022/09/05 08:01:13;;;;;;;4.03;2.78;;;19.50;95.70;;;;;;4950388;28;20036;-51
2022/09/05 08:03:41;;;;;;;3.33;2.50;;;19.60;95.30;;;;;;4956351;28;20108;-49
2022/09/05 08:06:21;;;;;;;3.63;2.65;;;19.70;95.00;;;;;;4945112;28;20038;-54
2022/09/05 08:09:05;;;;;;;6.53;2.90;;;19.70;95.40;;;;;;4954424;28;20027;-48
2022/09/05 08:11:34;;;;;;;3.03;2.72;;;19.80;95.20;;;;;;4948825;28;20016;-50
2022/09/05 08:14:10;;;;;;;5.63;3.30;;;19.80;95.20;;;;;;4951356;28;20027;-52
2022/09/05 08:16:37;;;;;;;;;;;20.00;95.50;;;;;;4955176;28;20215;-51
2022/09/05 08:19:08;;;;;;;;;;;20.20;95.10;;;;;;4949151;28;19912;-48
2022/09/05 08:21:45;;;;;;;3.63;3.10;;;20.30;94.50;;;;;;4955011;28;19949;-47
2022/09/05 08:24:12;;;;;;;5.30;3.10;;;20.40;94.50;;;;;;4960676;28;20510;-52
2022/09/05 08:26:41;;;;;;;4.40;2.55;;;20.60;94.40;;;;;;4954694;28;20027;-50
2022/09/05 08:29:30;;;;;;;2.63;2.42;;;20.70;94.10;;;;;;4959855;28;20019;-50
2022/09/05 08:32:10;;;;;;;5.85;3.15;;;20.90;94.30;;;;;;4951510;28;20361;-47
2022/09/05 08:34:55;;;;;;;4.07;3.33;;;21.00;94.30;;;;;;4947899;28;20473;-48
2022/09/05 08:37:24;;;;;;;5.03;3.42;;;21.00;94.20;;;;;;4948849;28;20039;-50
2022/09/05 08:39:53;;;;;;;4.65;2.65;;;21.10;93.90;;;;;;4963639;28;20035;-48
2022/09/05 08:42:28;;;;;;;3.85;2.95;;;21.10;93.70;;;;;;4951370;28;20023;-53
2022/09/05 08:45:18;;;;;;;5.35;2.80;;;21.00;93.90;;;;;;4960355;28;20031;-49
2022/09/05 08:48:01;;;;;;;4.55;2.88;;;21.10;94.00;;;;;;4952387;28;20024;-48
2022/09/05 08:50:38;;;;;;;3.15;2.35;;;21.10;93.90;;;;;;4953155;28;20027;-50
2022/09/05 08:53:31;;;;;;;3.38;2.70;;;21.20;93.80;;;;;;4950677;28;20079;-50
2022/09/05 08:56:21;;;;;;;2.65;2.45;;;21.30;94.10;;;;;;4955553;28;20034;-47
2022/09/05 08:59:25;;;;;;;3.22;2.47;;;21.40;93.90;;;;;;4957957;28;20098;-51
2022/09/05 09:01:54;;;;;;;3.33;2.95;;;21.40;93.50;;;;;;4955517;28;20019;-49
2022/09/05 09:04:49;;;;;;;5.20;2.60;;;21.40;93.60;;;;;;4950788;28;20095;-49
2022/09/05 09:07:18;;;;;;;3.13;2.72;;;21.50;93.50;;;;;;4947886;28;20077;-48
2022/09/05 09:09:58;;;;;;;5.88;3.28;;;21.50;93.30;;;;;;4948300;28;20409;-48
2022/09/05 09:12:36;;;;;;;3.60;2.90;;;21.50;93.40;;;;;;4951119;28;20019;-49
2022/09/05 09:15:39;;;;;;;3.22;2.90;;;21.50;93.20;;;;;;4950355;28;20038;-49
2022/09/05 09:18:15;;;;;;;6.25;3.00;;;21.60;93.50;;;;;;4950334;28;20106;-51
2022/09/05 09:20:48;;;;;;;4.43;2.63;;;21.70;93.40;;;;;;4953602;28;20026;-48
2022/09/05 09:23:23;;;;;;;2.72;2.45;;;21.70;93.20;;;;;;4952683;28;20102;-49
2022/09/05 09:25:51;;;;;;;5.07;2.28;;;21.80;93.10;;;;;;4953615;28;20458;-52
2022/09/05 09:28:41;;;;;;;2.88;2.65;;;21.80;93.00;;;;;;4952158;28;20070;-48
2022/09/05 09:31:36;;;;;;;6.10;2.92;;;21.80;93.10;;;;;;4953895;28;20057;-48
2022/09/05 09:34:24;;;;;;;2.92;2.60;;;21.80;93.20;;;;;;4956537;28;20094;-51
2022/09/05 09:37:20;;;;;;;2.95;2.75;;;21.80;93.30;;;;;;4950015;28;20023;-48
2022/09/05 09:40:01;;;;;;;3.10;2.85;;;21.90;93.00;;;;;;4955521;28;20023;-47
2022/09/05 09:42:32;;;;;;;4.18;2.60;;;21.80;93.00;;;;;;4946683;28;20396;-47
2022/09/05 09:45:16;;;;;;;6.70;3.20;;;21.90;93.40;;;;;;4959990;28;20031;-52
2022/09/05 09:48:07;;;;;;;3.17;2.75;;;21.90;93.40;;;;;;4951164;28;20023;-48
2022/09/05 09:50:57;;;;;;;5.32;2.67;;;21.90;93.20;;;;;;4951611;28;20022;-52
2022/09/05 09:53:36;;;;;;;3.45;2.67;;;22.00;93.20;;;;;;4948236;28;20027;-49
2022/09/05 09:56:52;;;;;;;3.15;2.72;;;22.10;93.40;;;;;;4954505;28;20032;-51
2022/09/05 09:59:28;;;;;;;4.28;3.05;;;22.10;92.70;;;;;;4944569;28;20020;-51
2022/09/05 10:02:21;;;;;;;3.90;2.70;;;22.10;93.00;;;;;;4953111;28;20109;-48
2022/09/05 10:04:49;;;;;;;3.85;3.10;;;22.10;93.40;;;;;;4951074;28;20050;-49
2022/09/05 10:07:48;;;;;;;3.03;2.80;;;22.30;93.40;;;;;;4950338;28;20085;-47
2022/09/05 10:10:22;;;;;;;3.03;2.67;;;22.40;92.90;;;;;;4962781;28;20057;-49
2022/09/05 10:12:59;;;;;;;6.80;3.10;;;22.50;93.30;;;;;;4953512;28;20027;-51
2022/09/05 10:15:40;;;;;;;3.13;2.80;;;22.50;93.00;;;;;;4952609;28;20671;-47
2022/09/05 10:18:50;;;;;;;6.13;2.75;;;22.60;92.70;;;;;;4951330;28;20023;-51
2022/09/05 10:21:37;;;;;;;2.90;2.65;;;22.70;93.00;;;;;;4949206;28;20033;-48
2022/09/05 10:24:33;;;;;;;3.38;3.08;;;22.70;92.70;;;;;;4959708;28;20041;-51
2022/09/05 10:27:12;;;;;;;3.95;3.05;;;22.80;92.40;;;;;;4950720;28;20166;-51
2022/09/05 10:30:09;;;;;;;3.90;3.08;;;22.80;92.80;;;;;;4947961;28;20455;-47
2022/09/05 10:32:40;;;;;;;3.40;3.10;;;22.80;92.60;;;;;;4949117;28;20125;-52
2022/09/05 10:35:08;;;;;;;4.93;2.80;;;22.80;93.20;;;;;;4951024;28;20090;-47
2022/09/05 10:37:43;;;;;;;5.55;3.33;;;22.90;92.40;;;;;;4951228;28;20093;-49
2022/09/05 10:40:13;;;;;;;3.53;2.60;;;23.10;91.80;;;;;;4959192;28;20043;-51
2022/09/05 10:42:46;;;;;;;4.45;3.03;;;23.10;91.80;;;;;;4951748;28;20104;-47
2022/09/05 10:45:51;;;;;;;4.07;2.55;;;23.20;91.50;;;;;;4957292;28;20027;-47
2022/09/05 10:48:28;;;;;;;2.80;2.53;;;23.20;91.20;;;;;;4948098;28;20055;-49
2022/09/05 10:50:59;;;;;;;4.30;2.40;;;23.20;91.00;;;;;;4955021;28;20024;-50
2022/09/05 10:53:39;;;;;;;6.95;2.72;;;23.10;91.10;;;;;;4948384;28;20479;-52
2022/09/05 10:56:21;;;;;;;4.20;2.60;;;23.10;91.10;;;;;;4953897;28;20630;-47
2022/09/05 10:58:59;;;;;;;3.42;2.83;;;23.10;90.80;;;;;;4956928;28;20023;-48
2022/09/05 11:01:40;;;;;;;4.53;2.63;;;23.10;91.20;;;;;;4954206;28;20027;-46
2022/09/05 11:04:14;;;;;;;4.28;2.72;;;23.10;91.10;;;;;;4951107;28;20027;-49
2022/09/05 11:06:45;;;;;;;3.92;2.42;;;23.20;91.00;;;;;;4955021;28;20034;-50
2022/09/05 11:09:36;;;;;;;2.65;2.45;;;23.30;90.60;;;;;;4959761;28;20026;-49
2022/09/05 11:12:20;;;;;;;3.13;2.67;;;23.40;90.80;;;;;;4951067;28;20200;-46
2022/09/05 11:14:55;;;;;;;3.00;2.60;;;23.40;90.70;;;;;;4950298;28;20531;-51
2022/09/05 11:17:21;;;;;;;;;;;23.50;90.70;;;;;;4956621;28;20510;-50
2022/09/05 11:20:04;;;;;;;2.70;2.50;;;23.50;90.50;;;;;;4948344;28;19918;-46
2022/09/05 11:22:37;;;;;;;2.28;2.08;;;23.60;90.50;;;;;;4958910;28;20042;-49
2022/09/05 11:25:13;;;;;;;2.30;2.10;;;23.70;90.50;;;;;;4952950;28;20023;-48
2022/09/05 11:27:39;;;;;;;;;;;23.80;90.00;;;;;;4958976;28;20061;-48
2022/09/05 11:30:14;;;;;;;2.38;2.15;;;23.90;89.80;;;;;;4951084;28;19942;-50
2022/09/05 11:33:07;;;;;;;2.33;2.13;;;24.10;90.50;;;;;;4955016;28;20027;-48
2022/09/05 11:35:55;;;;;;;2.90;2.28;;;24.30;89.60;;;;;;4945191;28;20519;-47
2022/09/05 11:38:48;;;;;;;2.20;2.00;;;24.50;89.40;;;;;;4949302;28;20082;-49
2022/09/05 11:41:33;;;;;;;3.45;2.20;;;24.50;89.10;;;;;;4957649;28;20030;-49
2022/09/05 11:44:46;;;;;;;2.85;2.58;;;24.60;88.20;;;;;;4949983;28;20032;-50
2022/09/05 11:47:39;;;;;;;4.10;2.63;;;24.70;87.10;;;;;;4937785;28;20453;-50
2022/09/05 11:50:05;;;;;;;2.63;2.42;;;24.60;87.30;;;;;;4953287;28;20033;-50
2022/09/05 11:52:56;;;;;;;3.78;2.42;;;24.50;88.40;;;;;;4945573;28;20027;-52
2022/09/05 11:55:24;;;;;;;3.65;2.53;;;24.50;87.00;;;;;;4948638;28;20023;-49
2022/09/05 11:58:11;;;;;;;3.60;2.15;;;24.50;87.10;;;;;;4962543;28;20540;-48
2022/09/05 12:00:50;;;;;;;2.22;2.03;;;24.50;87.30;;;;;;4954596;28;20027;-50
2022/09/05 12:03:54;;;;;;;3.95;2.53;;;24.60;86.10;;;;;;4960391;28;20023;-52
2022/09/05 12:06:39;;;;;;;3.28;2.22;;;24.70;85.60;;;;;;4952980;28;20142;-47
2022/09/05 12:09:43;;;;;;;2.58;2.35;;;24.80;85.30;;;;;;4963392;28;20106;-50
2022/09/05 12:12:25;;;;;;;2.28;2.08;;;24.80;85.20;;;;;;4954568;28;20700;-48
2022/09/05 12:15:02;;;;;;;3.25;2.15;;;24.70;84.90;;;;;;4951566;28;20035;-47
2022/09/05 12:17:36;;;;;;;2.88;2.13;;;24.60;84.70;;;;;;4959574;28;20046;-51
2022/09/05 12:20:19;;;;;;;2.90;2.20;;;24.40;84.80;;;;;;4983468;23;20046;-57
2022/09/05 12:23:20;;;;;;;2.25;2.08;;;24.30;85.70;;;;;;4986689;28;20026;-55
2022/09/05 12:26:15;;;;;;;2.70;2.05;;;24.30;85.20;;;;;;4982909;28;20014;-54
2022/09/05 12:29:02;;;;;;;2.03;1.83;;;24.20;85.20;;;;;;4966638;28;20110;-53
2022/09/05 12:31:37;;;;;;;2.80;2.10;;;24.10;85.00;;;;;;4984295;28;20030;-56
2022/09/05 12:34:08;;;;;;;3.25;2.08;;;24.10;85.20;;;;;;4984422;28;20026;-57
2022/09/05 12:36:41;;;;;;;2.25;2.05;;;24.10;84.90;;;;;;4978496;28;20026;-58
2022/09/05 12:39:22;;;;;;;3.20;2.35;;;24.00;85.70;;;;;;4984596;28;20102;-57
2022/09/05 12:41:52;;;;;;;2.72;2.08;;;24.10;86.10;;;;;;4986878;28;20025;-52
2022/09/05 12:44:22;;;;;;;3.97;2.53;;;24.20;86.70;;;;;;4977623;28;20019;-56
2022/09/05 12:47:01;;;;;;;2.22;2.08;;;24.20;85.40;;;;;;4987941;28;20109;-55
2022/09/05 12:49:36;;;;;;;2.30;2.10;;;24.20;85.90;;;;;;4976451;28;20033;-56
2022/09/05 12:52:11;;;;;;;2.83;2.17;;;24.20;85.80;;;;;;4987059;28;20571;-54
2022/09/05 12:54:54;;;;;;;2.58;1.98;;;24.10;85.20;;;;;;4980703;28;20026;-52
2022/09/05 12:57:27;;;;;;;2.20;2.00;;;24.00;85.90;;;;;;4970893;28;20066;-54
2022/09/05 12:59:57;;;;;;;2.70;2.50;;;24.00;86.00;;;;;;4982435;28;20108;-55
2022/09/05 13:02:28;;;;;;;5.43;2.20;;;23.90;86.00;;;;;;4984524;28;20025;-52
2022/09/05 13:05:00;;;;;;;2.95;2.00;;;23.90;86.70;;;;;;4982242;28;20023;-55
2022/09/05 13:07:41;;;;;;;2.40;2.20;;;24.00;86.50;;;;;;4971742;28;20085;-58
2022/09/05 13:10:21;;;;;;;2.35;2.13;;;23.90;85.80;;;;;;4982524;28;20023;-52
2022/09/05 13:12:54;;;;;;;4.05;2.30;;;23.90;85.50;;;;;;4987959;28;20056;-55
2022/09/05 13:15:36;;;;;;;2.75;2.22;;;23.90;85.90;;;;;;4976611;28;20022;-54
2022/09/05 13:18:09;;;;;;;2.45;2.13;;;23.90;86.20;;;;;;4983338;28;20414;-55
2022/09/05 13:20:38;;;;;;;4.68;2.40;;;23.80;86.00;;;;;;4983719;28;20022;-56
2022/09/05 13:23:24;;;;;;;4.30;2.22;;;23.90;86.70;;;;;;4980854;28;20049;-54
2022/09/05 13:26:10;;;;;;;3.58;2.15;;;23.90;86.30;;;;;;4986678;28;20030;-55
2022/09/05 13:28:47;;;;;;;;;;;23.90;86.30;;;;;;4979625;28;20035;-55
2022/09/05 13:31:14;;;;;;;3.35;2.10;;;23.90;85.50;;;;;;4986994;28;19946;-57
2022/09/05 13:33:47;;;;;;;3.88;2.50;;;23.90;86.00;;;;;;4979884;28;20501;-54
2022/09/05 13:36:20;;;;;;;5.35;2.60;;;23.90;86.00;;;;;;4988220;28;20043;-56
2022/09/05 13:39:04;;;;;;;5.20;2.70;;;23.80;85.60;;;;;;4980570;28;20105;-53
2022/09/05 13:41:35;;;;;;;3.03;1.92;;;23.80;85.70;;;;;;4971903;28;20018;-54
2022/09/05 13:44:17;;;;;;;4.22;2.40;;;23.80;86.00;;;;;;4981929;28;20061;-55
2022/09/05 13:46:55;;;;;;;3.05;2.03;;;23.80;85.90;;;;;;4983484;28;20052;-56
2022/09/05 13:49:43;;;;;;;3.17;2.30;;;23.80;86.60;;;;;;4983467;28;20032;-57
2022/09/05 13:52:30;;;;;;;3.50;2.47;;;23.80;86.20;;;;;;4980011;28;20027;-56
2022/09/05 13:55:27;;;;;;;6.65;2.20;;;23.90;85.60;;;;;;4985888;28;20027;-55
2022/09/05 13:58:18;;;;;;;3.25;2.40;;;23.90;86.10;;;;;;4976176;28;20491;-57
2022/09/05 14:00:49;;;;;;;4.07;2.20;;;23.90;85.60;;;;;;4982569;28;20030;-57
2022/09/05 14:03:54;;;;;;;3.47;2.45;;;23.90;85.20;;;;;;4965330;28;20026;-56